Time;durP1;ratioP1;P1;durP2;ratioP2;P2;SDS_P1;SDS_P2;PMS_P1;PMS_P2;Temp;Humidity;BMP_temperature;BMP_pressure;BME280_temperature;BME280_humidity;BME280_pressure;Samples;Min_cycle;Max_cycle;Signal;HPM_P1;HPM_P2
2023/01/09 00:00:13;;;;;;;;;;;16.10;91.90;;;;;;5016243;28;20324;-90
2023/01/09 00:02:39;;;;;;;;;;;16.10;92.00;;;;;;5015149;28;19944;-89
2023/01/09 00:05:06;;;;;;;;;;;16.10;92.10;;;;;;5014934;28;19994;-89
2023/01/09 00:07:32;;;;;;;;;;;16.10;92.20;;;;;;5014777;28;19909;-89
2023/01/09 00:09:57;;;;;;;;;;;16.10;92.30;;;;;;5015261;28;19909;-90
2023/01/09 00:12:23;;;;;;;;;;;16.00;92.30;;;;;;5015862;28;19959;-90
2023/01/09 00:14:48;;;;;;;;;;;16.00;92.40;;;;;;5015693;28;20149;-90
2023/01/09 00:17:14;;;;;;;;;;;16.00;92.40;;;;;;5015120;28;20401;-90
2023/01/09 00:19:40;;;;;;;;;;;16.00;92.50;;;;;;5014259;28;19921;-89
2023/01/09 00:22:08;;;;;;;;;;;15.90;92.50;;;;;;5013565;28;20268;-89
2023/01/09 00:24:34;;;;;;;;;;;15.90;92.60;;;;;;5013744;28;19983;-90
2023/01/09 00:27:01;;;;;;;;;;;15.90;92.70;;;;;;5013729;28;20160;-90
2023/01/09 00:29:27;;;;;;;;;;;15.90;92.70;;;;;;5013618;28;20072;-90
2023/01/09 00:31:52;;;;;;;;;;;15.90;92.70;;;;;;5014213;28;19920;-90
2023/01/09 00:34:18;;;;;;;;;;;15.80;92.80;;;;;;5014174;28;19932;-89
2023/01/09 00:36:44;;;;;;;;;;;15.80;92.80;;;;;;5013589;28;20011;-90
2023/01/09 00:39:09;;;;;;;;;;;15.80;92.90;;;;;;5015654;28;20023;-89
2023/01/09 00:41:37;;;;;;;;;;;15.80;92.90;;;;;;5015015;28;19909;-89
2023/01/09 00:44:07;;;;;;;;;;;15.80;93.00;;;;;;5014492;28;19909;-90
2023/01/09 00:46:36;;;;;;;;;;;15.80;93.00;;;;;;5014759;28;20276;-90
2023/01/09 00:49:03;;;;;;;;;;;15.80;93.10;;;;;;5014255;28;19953;-89
2023/01/09 00:51:28;;;;;;;;;;;15.70;93.10;;;;;;5014335;28;20038;-89
2023/01/09 00:53:54;;;;;;;;;;;15.80;93.10;;;;;;5014124;28;20000;-89
2023/01/09 00:56:21;;;;;;;;;;;15.70;93.10;;;;;;5013803;28;19910;-89
2023/01/09 00:58:47;;;;;;;;;;;15.70;93.10;;;;;;5031619;28;20172;-89
2023/01/09 01:01:12;;;;;;;;;;;15.70;93.20;;;;;;5014669;28;19916;-89
2023/01/09 01:03:38;;;;;;;;;;;15.70;93.20;;;;;;5024898;28;20017;-89
2023/01/09 01:08:48;;;;;;;;;;;15.60;93.30;;;;;;5036053;28;20004;-89
2023/01/09 01:11:13;;;;;;;;;;;15.60;93.30;;;;;;5019111;28;20406;-89
2023/01/09 01:13:40;;;;;;;;;;;15.60;93.40;;;;;;5036413;28;19910;-89
2023/01/09 01:16:06;;;;;;;;;;;15.60;93.40;;;;;;5018847;28;20226;-89
2023/01/09 01:18:31;;;;;;;;;;;15.60;93.50;;;;;;5018062;28;19925;-89
2023/01/09 01:20:57;;;;;;;;;;;15.60;93.50;;;;;;5017432;28;19983;-89
2023/01/09 01:23:23;;;;;;;;;;;15.50;93.50;;;;;;5018257;28;19909;-89
2023/01/09 01:25:48;;;;;;;;;;;15.50;93.60;;;;;;5017453;28;19909;-89
2023/01/09 01:28:14;;;;;;;;;;;15.50;93.60;;;;;;5035112;28;19913;-88
2023/01/09 01:30:40;;;;;;;;;;;15.50;93.60;;;;;;5018218;28;20183;-89
2023/01/09 01:33:06;;;;;;;;;;;15.50;93.60;;;;;;5017851;28;19917;-89
2023/01/09 01:35:32;;;;;;;;;;;15.50;93.60;;;;;;5018765;28;19944;-89
2023/01/09 01:37:57;;;;;;;;;;;15.50;93.70;;;;;;5017563;28;19909;-89
2023/01/09 01:40:23;;;;;;;;;;;15.50;93.60;;;;;;5035246;28;20404;-89
2023/01/09 01:42:50;;;;;;;;;;;15.50;93.60;;;;;;5018493;28;19920;-89
2023/01/09 01:45:18;;;;;;;;;;;15.50;93.70;;;;;;5020064;28;19909;-88
2023/01/09 01:48:02;;;;;;;;;;;15.50;93.70;;;;;;5000080;28;19935;-89
2023/01/09 01:50:28;;;;;;;;;;;15.50;93.70;;;;;;5017578;28;20002;-88
2023/01/09 01:53:05;;;;;;;;;;;15.40;93.70;;;;;;5015835;28;19959;-89
2023/01/09 01:55:33;;;;;;;;;;;15.40;93.70;;;;;;5016464;28;19920;-88
2023/01/09 01:58:02;;;;;;;;;;;15.40;93.70;;;;;;5017248;28;19917;-88
2023/01/09 02:00:31;;;;;;;;;;;15.40;93.70;;;;;;5017155;28;19913;-88
2023/01/09 02:02:58;;;;;;;;;;;15.40;93.70;;;;;;5017322;28;19916;-89
2023/01/09 02:05:23;;;;;;;;;;;15.40;93.80;;;;;;5017573;28;19916;-88
2023/01/09 02:07:49;;;;;;;;;;;15.40;93.80;;;;;;5015381;28;19909;-87
2023/01/09 02:10:15;;;;;;;;;;;15.40;93.80;;;;;;5014342;28;20003;-88
2023/01/09 02:12:40;;;;;;;;;;;15.40;93.80;;;;;;5015219;28;19913;-88
2023/01/09 02:15:08;;;;;;;;;;;15.40;93.80;;;;;;5015118;28;19909;-88
2023/01/09 02:17:37;;;;;;;;;;;15.40;93.90;;;;;;5014898;28;19935;-88
2023/01/09 02:20:26;;;;;;;;;;;15.40;93.90;;;;;;5015901;28;19963;-88
2023/01/09 02:22:54;;;;;;;;;;;15.30;93.90;;;;;;5035029;28;19916;-87
2023/01/09 02:25:43;;;;;;;;;;;15.40;93.90;;;;;;5035776;28;19910;-88
2023/01/09 02:28:27;;;;;;;;;;;15.30;93.90;;;;;;4991302;28;19909;-88
2023/01/09 02:31:12;;;;;;;;;;;15.30;93.90;;;;;;5019091;28;19964;-88
2023/01/09 02:33:56;;;;;;;;;;;15.30;93.90;;;;;;5019040;28;19928;-88
2023/01/09 02:36:29;;;;;;;;;;;15.30;93.90;;;;;;5019082;28;19915;-88
2023/01/09 02:38:58;;;;;;;;;;;15.30;94.00;;;;;;5019457;28;19928;-88
2023/01/09 02:41:31;;;;;;;;;;;15.30;94.00;;;;;;5020363;28;19921;-88
2023/01/09 02:44:19;;;;;;;;;;;15.30;94.00;;;;;;5020065;28;20219;-88
2023/01/09 02:46:45;;;;;;;;;;;15.20;94.00;;;;;;5012539;28;19913;-88
2023/01/09 02:49:12;;;;;;;;;;;15.20;94.00;;;;;;5019823;28;19932;-88
2023/01/09 02:51:51;;;;;;;;;;;15.20;94.00;;;;;;5017713;28;19909;-88
2023/01/09 02:54:29;;;;;;;;;;;15.20;94.00;;;;;;5017718;28;19947;-88
2023/01/09 02:56:58;;;;;;;;;;;15.20;94.00;;;;;;5017284;28;19909;-88
2023/01/09 02:59:25;;;;;;;;;;;15.20;94.00;;;;;;5017027;28;20150;-88
2023/01/09 03:01:59;;;;;;;;;;;15.20;94.00;;;;;;5018866;28;19915;-88
2023/01/09 03:04:37;;;;;;;;;;;15.20;94.00;;;;;;5017383;28;19949;-88
2023/01/09 03:07:06;;;;;;;;;;;15.20;94.00;;;;;;5017598;28;19909;-88
2023/01/09 03:09:33;;;;;;;;;;;15.20;94.10;;;;;;5017498;28;20008;-88
2023/01/09 03:12:05;;;;;;;;;;;15.20;94.10;;;;;;5035641;28;19910;-88
2023/01/09 03:14:32;;;;;;;;;;;15.20;94.10;;;;;;5019139;28;20196;-88
2023/01/09 03:17:01;;;;;;;;;;;15.20;94.10;;;;;;5018169;28;20263;-88
2023/01/09 03:19:29;;;;;;;;;;;15.20;94.10;;;;;;5018305;28;19913;-88
2023/01/09 03:21:55;;;;;;;;;;;15.10;94.10;;;;;;5019128;28;19967;-88
2023/01/09 03:24:21;;;;;;;;;;;15.10;94.40;;;;;;5019453;28;19909;-89
2023/01/09 03:26:46;;;;;;;;;;;15.10;94.10;;;;;;5018285;28;20247;-88
2023/01/09 03:29:12;;;;;;;;;;;15.10;94.10;;;;;;5018972;28;20292;-88
2023/01/09 03:31:38;;;;;;;;;;;15.10;94.10;;;;;;5036641;28;19909;-88
2023/01/09 03:34:03;;;;;;;;;;;15.10;94.20;;;;;;5019716;28;19917;-88
2023/01/09 03:36:29;;;;;;;;;;;15.10;94.20;;;;;;5019227;28;19917;-88
2023/01/09 03:38:54;;;;;;;;;;;15.10;94.20;;;;;;5019249;28;20067;-88
2023/01/09 03:41:20;;;;;;;;;;;15.10;94.20;;;;;;5019564;28;19952;-88
2023/01/09 03:43:47;;;;;;;;;;;15.00;94.20;;;;;;5019861;28;19920;-87
2023/01/09 03:46:13;;;;;;;;;;;15.00;94.30;;;;;;5019166;28;19944;-88
2023/01/09 03:48:39;;;;;;;;;;;15.00;94.30;;;;;;5036387;28;19909;-88
2023/01/09 03:51:05;;;;;;;;;;;15.00;94.30;;;;;;5036153;28;19920;-88
2023/01/09 03:53:30;;;;;;;;;;;14.90;94.30;;;;;;5019399;28;20191;-88
2023/01/09 03:55:56;;;;;;;;;;;15.00;94.50;;;;;;5019610;28;19915;-88
2023/01/09 03:58:22;;;;;;;;;;;15.80;92.70;;;;;;5018652;28;19944;-88
2023/01/09 04:00:49;;;;;;;;;;;16.60;90.20;;;;;;5017720;28;20014;-88
2023/01/09 04:03:16;;;;;;;;;;;17.00;87.50;;;;;;5017111;28;19913;-88
2023/01/09 04:05:42;;;;;;;;;;;17.30;84.90;;;;;;5031931;28;19996;-88
2023/01/09 04:08:07;;;;;;;;;;;17.60;82.70;;;;;;5016128;28;19940;-88
2023/01/09 04:10:34;;;;;;;;;;;17.90;80.70;;;;;;5016514;28;20183;-88
2023/01/09 04:13:00;;;;;;;;;;;18.10;78.90;;;;;;5016510;28;19909;-88
2023/01/09 04:15:25;;;;;;;;;;;18.30;77.50;;;;;;5015336;28;19909;-88
2023/01/09 04:17:51;;;;;;;;;;;18.40;76.20;;;;;;5015894;28;19909;-88
2023/01/09 04:20:17;;;;;;;;;;;18.50;75.40;;;;;;5015326;28;19913;-88
2023/01/09 04:22:43;;;;;;;;;;;18.60;74.60;;;;;;5032941;28;19909;-88
2023/01/09 04:25:08;;;;;;;;;;;18.70;73.80;;;;;;5017284;28;19909;-88
2023/01/09 04:27:34;;;;;;;;;;;18.70;73.30;;;;;;5015599;28;20306;-88
2023/01/09 04:30:00;;;;;;;;;;;18.80;72.60;;;;;;5016092;28;19974;-88
2023/01/09 04:32:26;;;;;;;;;;;18.90;72.00;;;;;;5017085;28;19909;-88
2023/01/09 04:34:55;;;;;;;;;;;19.00;71.50;;;;;;5016908;28;20020;-88
2023/01/09 04:37:23;;;;;;;;;;;18.90;71.40;;;;;;5015639;28;22154;-88
2023/01/09 04:39:50;;;;;;;;;;;18.80;71.50;;;;;;5015627;28;19913;-88
2023/01/09 04:42:15;;;;;;;;;;;18.80;71.90;;;;;;5015679;28;19910;-88
2023/01/09 04:44:41;;;;;;;;;;;18.70;72.30;;;;;;5015612;28;19909;-88
2023/01/09 04:47:07;;;;;;;;;;;18.60;72.90;;;;;;5015721;28;19920;-88
2023/01/09 04:49:33;;;;;;;;;;;18.50;73.50;;;;;;5017446;28;19917;-88
2023/01/09 04:51:58;;;;;;;;;;;18.40;74.30;;;;;;5016666;28;19913;-88
2023/01/09 04:54:24;;;;;;;;;;;18.20;75.00;;;;;;5015947;28;19923;-88
2023/01/09 04:56:49;;;;;;;;;;;18.10;75.70;;;;;;5016150;28;20290;-88
2023/01/09 04:59:15;;;;;;;;;;;18.00;76.40;;;;;;5016961;28;20027;-88
2023/01/09 05:01:41;;;;;;;;;;;17.90;77.00;;;;;;5033287;28;19944;-87
2023/01/09 05:04:06;;;;;;;;;;;17.80;77.80;;;;;;5022047;28;19898;-88
2023/01/09 05:06:33;;;;;;;;;;;17.70;78.70;;;;;;5020879;28;20341;-88
2023/01/09 05:08:59;;;;;;;;;;;17.60;79.50;;;;;;5016935;28;20238;-88
2023/01/09 05:11:24;;;;;;;;;;;17.40;80.30;;;;;;5016714;28;19909;-87
2023/01/09 05:13:50;;;;;;;;;;;17.30;81.10;;;;;;5014628;28;20160;-87
2023/01/09 05:16:16;;;;;;;;;;;17.20;81.80;;;;;;5013336;28;19909;-88
2023/01/09 05:18:42;;;;;;;;;;;17.10;82.60;;;;;;5013778;28;19959;-88
2023/01/09 05:21:07;;;;;;;;;;;17.00;83.30;;;;;;5015003;28;20183;-88
2023/01/09 05:23:33;;;;;;;;;;;16.90;84.20;;;;;;5014711;28;19910;-88
2023/01/09 05:25:58;;;;;;;;;;;16.80;84.90;;;;;;5014806;28;19908;-88
2023/01/09 05:28:24;;;;;;;;;;;16.70;85.70;;;;;;5030883;28;19909;-88
2023/01/09 05:30:50;;;;;;;;;;;16.60;86.40;;;;;;5013640;28;20150;-87
2023/01/09 05:33:15;;;;;;;;;;;16.60;86.70;;;;;;5012954;28;20239;-88
2023/01/09 05:35:41;;;;;;;;;;;16.60;86.90;;;;;;5012533;28;19920;-88
2023/01/09 05:38:07;;;;;;;;;;;16.60;86.80;;;;;;5032337;28;19909;-87
2023/01/09 05:40:32;;;;;;;;;;;16.70;86.30;;;;;;5014013;28;19913;-88
2023/01/09 05:42:57;;;;;;;;;;;16.90;85.10;;;;;;5012891;28;19944;-88
2023/01/09 05:45:23;;;;;;;;;;;17.20;83.20;;;;;;5012163;28;20175;-88
2023/01/09 05:47:49;;;;;;;;;;;17.50;80.70;;;;;;5013079;28;20015;-88
2023/01/09 05:50:14;;;;;;;;;;;17.80;78.40;;;;;;5013518;28;20012;-88
2023/01/09 05:52:40;;;;;;;;;;;18.10;76.50;;;;;;5012679;28;19983;-88
2023/01/09 05:55:06;;;;;;;;;;;18.20;74.90;;;;;;5015999;28;19916;-88
2023/01/09 05:57:32;;;;;;;;;;;18.40;73.70;;;;;;5014690;28;19909;-88
2023/01/09 05:59:57;;;;;;;;;;;18.50;73.00;;;;;;5012905;28;19913;-88
2023/01/09 06:02:23;;;;;;;;;;;18.50;72.40;;;;;;5012441;28;20056;-88
2023/01/09 06:04:48;;;;;;;;;;;18.50;72.30;;;;;;5013082;28;19909;-87
2023/01/09 06:07:14;;;;;;;;;;;18.40;72.20;;;;;;5011512;28;19924;-87
2023/01/09 06:09:40;;;;;;;;;;;18.40;72.40;;;;;;5007323;28;19919;-88
2023/01/09 06:12:05;;;;;;;;;;;18.30;72.80;;;;;;5013395;28;19905;-88
2023/01/09 06:14:31;;;;;;;;;;;18.20;73.10;;;;;;5012308;28;20031;-88
2023/01/09 06:16:56;;;;;;;;;;;18.10;73.50;;;;;;5029094;28;19909;-88
2023/01/09 06:19:23;;;;;;;;;;;18.00;74.10;;;;;;5027872;28;20318;-87
2023/01/09 06:21:49;;;;;;;;;;;18.00;74.80;;;;;;5009547;28;20112;-87
2023/01/09 06:24:15;;;;;;;;;;;17.90;75.10;;;;;;4996677;28;20255;-88
2023/01/09 06:26:40;;;;;;;;;;;17.70;75.50;;;;;;5008001;28;20273;-88
2023/01/09 06:29:07;;;;;;;;;;;17.70;76.30;;;;;;5010690;28;19909;-88
2023/01/09 06:31:32;;;;;;;;;;;17.60;76.80;;;;;;5011037;28;19949;-88
2023/01/09 06:37:01;;;;;;;;;;;17.40;78.20;;;;;;5028475;28;19946;-87
2023/01/09 06:39:26;;;;;;;;;;;17.30;78.90;;;;;;5012360;28;20561;-88
2023/01/09 06:41:52;;;;;;;;;;;17.20;79.60;;;;;;5010494;28;20007;-87
2023/01/09 06:44:17;;;;;;;;;;;17.10;80.40;;;;;;5010365;28;20090;-87
2023/01/09 06:46:43;;;;;;;;;;;17.00;81.00;;;;;;5010277;28;20160;-88
2023/01/09 06:49:09;;;;;;;;;;;16.90;81.50;;;;;;5007287;28;20173;-88
2023/01/09 06:51:34;;;;;;;;;;;16.80;82.50;;;;;;5007976;28;19935;-88
2023/01/09 06:54:00;;;;;;;;;;;16.70;83.00;;;;;;5009414;28;19910;-88
2023/01/09 06:56:26;;;;;;;;;;;16.70;83.30;;;;;;5009819;28;19909;-87
2023/01/09 06:58:51;;;;;;;;;;;16.70;83.60;;;;;;5009614;28;19909;-88
2023/01/09 07:01:17;;;;;;;;;;;16.70;83.90;;;;;;5027041;28;19908;-88
2023/01/09 07:03:43;;;;;;;;;;;16.70;83.90;;;;;;5027365;28;20203;-88
2023/01/09 07:06:09;;;;;;;;;;;16.70;84.10;;;;;;5009763;28;19964;-88
2023/01/09 07:08:34;;;;;;;;;;;16.70;84.20;;;;;;5008808;28;19917;-88
2023/01/09 07:11:00;;;;;;;;;;;16.70;84.10;;;;;;5026470;28;19924;-88
2023/01/09 07:13:25;;;;;;;;;;;16.80;83.90;;;;;;5007796;28;20066;-88
2023/01/09 07:15:52;;;;;;;;;;;16.80;83.80;;;;;;5008517;28;19909;-88
2023/01/09 07:18:18;;;;;;;;;;;16.90;83.30;;;;;;5009152;28;19917;-88
2023/01/09 07:20:43;;;;;;;;;;;16.90;82.80;;;;;;5008235;28;20123;-88
2023/01/09 07:23:12;;;;;;;;;;;16.90;82.70;;;;;;5011151;28;20183;-87
2023/01/09 07:25:39;;;;;;;;;;;17.00;83.00;;;;;;5010978;28;19910;-87
2023/01/09 07:28:04;;;;;;;;;;;17.00;83.40;;;;;;5009052;28;19913;-87
2023/01/09 07:30:30;;;;;;;;;;;17.00;83.40;;;;;;5009209;28;19923;-88
2023/01/09 07:32:55;;;;;;;;;;;17.10;83.50;;;;;;5007648;28;19923;-87
2023/01/09 07:35:21;;;;;;;;;;;17.10;83.70;;;;;;5008904;28;19920;-87
2023/01/09 07:37:46;;;;;;;;;;;17.20;83.30;;;;;;5011562;28;19953;-87
2023/01/09 07:40:12;;;;;;;;;;;17.30;82.70;;;;;;5009566;28;20134;-87
2023/01/09 07:42:38;;;;;;;;;;;17.30;82.80;;;;;;5009660;28;20273;-87
2023/01/09 07:45:04;;;;;;;;;;;17.30;82.30;;;;;;5010795;28;19975;-87
2023/01/09 07:47:29;;;;;;;;;;;17.30;82.80;;;;;;5010063;28;19909;-87
2023/01/09 07:49:55;;;;;;;;;;;17.30;82.70;;;;;;5011923;28;19968;-87
2023/01/09 07:52:21;;;;;;;;;;;17.30;82.40;;;;;;5010170;28;19913;-87
2023/01/09 07:54:46;;;;;;;;;;;17.30;82.40;;;;;;5009322;28;19963;-87
2023/01/09 07:57:12;;;;;;;;;;;17.40;82.40;;;;;;5008548;28;20294;-87
2023/01/09 07:59:39;;;;;;;;;;;17.40;82.10;;;;;;5007638;28;19915;-87
2023/01/09 08:02:05;;;;;;;;;;;17.50;81.40;;;;;;5008400;28;19909;-87
2023/01/09 08:04:31;;;;;;;;;;;17.50;80.90;;;;;;5008112;28;20000;-88
2023/01/09 08:06:57;;;;;;;;;;;17.50;80.50;;;;;;5010700;28;19995;-88
2023/01/09 08:09:23;;;;;;;;;;;17.50;80.80;;;;;;5010798;28;19909;-88
2023/01/09 08:11:49;;;;;;;;;;;17.40;81.00;;;;;;5010238;28;20142;-88
2023/01/09 08:14:15;;;;;;;;;;;17.50;80.70;;;;;;5011187;28;19936;-88
2023/01/09 08:16:40;;;;;;;;;;;17.50;80.50;;;;;;5011760;28;19916;-88
2023/01/09 08:19:07;;;;;;;;;;;17.40;80.90;;;;;;5009934;28;20357;-88
2023/01/09 08:21:32;;;;;;;;;;;17.40;81.00;;;;;;5025533;28;20257;-88
2023/01/09 08:23:58;;;;;;;;;;;17.30;81.40;;;;;;5010189;28;20016;-88
2023/01/09 08:26:23;;;;;;;;;;;17.30;81.30;;;;;;5027092;28;19923;-87
2023/01/09 08:28:49;;;;;;;;;;;17.30;81.60;;;;;;5011027;28;20191;-87
2023/01/09 08:31:14;;;;;;;;;;;17.20;81.90;;;;;;5010332;28;20259;-87
2023/01/09 08:33:40;;;;;;;;;;;17.20;82.90;;;;;;5009874;28;19983;-88
2023/01/09 08:36:06;;;;;;;;;;;17.20;82.20;;;;;;5010124;28;19910;-88
2023/01/09 08:38:31;;;;;;;;;;;17.10;82.80;;;;;;5012235;28;20280;-88
2023/01/09 08:40:57;;;;;;;;;;;17.10;82.80;;;;;;5008909;28;20199;-88
2023/01/09 08:48:58;;;;;;;;;;;17.00;82.80;;;;;;5025806;28;19924;-87
2023/01/09 08:51:24;;;;;;;;;;;16.90;83.50;;;;;;5009956;28;19909;-87
2023/01/09 08:53:49;;;;;;;;;;;16.80;84.20;;;;;;5009377;28;19956;-88
2023/01/09 08:56:15;;;;;;;;;;;16.70;84.80;;;;;;5010073;28;19916;-88
2023/01/09 08:58:40;;;;;;;;;;;16.70;85.50;;;;;;5009763;28;19936;-87
2023/01/09 09:01:06;;;;;;;;;;;16.60;86.20;;;;;;5010878;28;19915;-88
2023/01/09 09:03:34;;;;;;;;;;;16.50;87.10;;;;;;5009375;28;20207;-88
2023/01/09 09:05:59;;;;;;;;;;;16.40;87.60;;;;;;5009133;28;19909;-88
2023/01/09 09:08:25;;;;;;;;;;;16.30;88.20;;;;;;5009397;28;20180;-88
2023/01/09 09:10:50;;;;;;;;;;;16.30;88.60;;;;;;5008988;28;19976;-88
2023/01/09 09:13:16;;;;;;;;;;;16.20;89.00;;;;;;5009672;28;19982;-88
2023/01/09 09:15:41;;;;;;;;;;;16.20;89.20;;;;;;5025862;28;19917;-88
2023/01/09 09:18:08;;;;;;;;;;;16.20;89.20;;;;;;5018741;28;19918;-87
2023/01/09 09:20:37;;;;;;;;;;;16.30;89.40;;;;;;5010859;28;20090;-89
2023/01/09 09:23:04;;;;;;;;;;;16.30;89.40;;;;;;5008814;28;19910;-89
2023/01/09 09:25:29;;;;;;;;;;;16.30;89.50;;;;;;5007287;28;19913;-88
2023/01/09 09:27:55;;;;;;;;;;;16.40;89.20;;;;;;5013069;28;20245;-89
2023/01/09 09:30:21;;;;;;;;;;;16.50;89.00;;;;;;5013524;28;19920;-89
2023/01/09 09:32:47;;;;;;;;;;;16.60;88.40;;;;;;5029193;28;19998;-89
2023/01/09 09:35:12;;;;;;;;;;;16.80;87.80;;;;;;5010074;28;19913;-89
2023/01/09 09:37:38;;;;;;;;;;;16.90;86.80;;;;;;5011082;28;19949;-89
2023/01/09 09:40:05;;;;;;;;;;;17.20;85.00;;;;;;5010618;28;20269;-89
2023/01/09 09:45:43;;;;;;;;;;;17.50;82.50;;;;;;5029589;28;20204;-89
2023/01/09 09:48:21;;;;;;;;;;;17.80;81.20;;;;;;5012973;28;19990;-89
2023/01/09 09:51:05;;;;;;;;;;;17.80;80.70;;;;;;5013319;28;19909;-88
2023/01/09 09:53:31;;;;;;;;;;;17.80;80.30;;;;;;5015977;28;19935;-89
2023/01/09 09:55:56;;;;;;;;;;;17.90;80.00;;;;;;5013644;28;20188;-89
2023/01/09 09:58:34;;;;;;;;;;;17.80;80.30;;;;;;5013278;28;19970;-89
2023/01/09 10:01:00;;;;;;;;;;;17.60;80.50;;;;;;5013492;28;19956;-89
2023/01/09 10:03:37;;;;;;;;;;;17.60;80.90;;;;;;5013652;28;19956;-89
2023/01/09 10:06:05;;;;;;;;;;;17.50;81.30;;;;;;5014076;28;19917;-89
2023/01/09 10:08:44;;;;;;;;;;;17.40;81.90;;;;;;5014371;28;20098;-89
2023/01/09 10:11:15;;;;;;;;;;;17.30;82.50;;;;;;5012778;28;19909;-89
2023/01/09 10:16:25;;;;;;;;;;;17.10;83.60;;;;;;5031286;28;20046;-89
2023/01/09 10:19:05;;;;;;;;;;;17.00;84.30;;;;;;5012255;28;19917;-89
2023/01/09 10:21:39;;;;;;;;;;;17.00;84.80;;;;;;5013697;28;20187;-89
2023/01/09 10:24:08;;;;;;;;;;;16.90;85.40;;;;;;5011954;28;20172;-89
2023/01/09 10:26:40;;;;;;;;;;;16.80;85.80;;;;;;5011174;28;20257;-88
2023/01/09 10:29:25;;;;;;;;;;;16.70;86.30;;;;;;5010569;28;19909;-88
2023/01/09 10:32:09;;;;;;;;;;;16.70;87.00;;;;;;5010416;28;20219;-89
2023/01/09 10:34:47;;;;;;;;;;;16.70;86.40;;;;;;5013028;28;19960;-88
2023/01/09 10:37:25;;;;;;;;;;;16.70;86.50;;;;;;5010092;28;19909;-89
2023/01/09 10:40:12;;;;;;;;;;;16.70;86.80;;;;;;5008500;28;20009;-88
2023/01/09 10:42:58;;;;;;;;;;;16.70;86.90;;;;;;5009926;28;19957;-88
2023/01/09 10:45:30;;;;;;;;;;;16.70;87.10;;;;;;5011885;28;20306;-88
2023/01/09 10:48:02;;;;;;;;;;;16.70;87.30;;;;;;5013108;28;20441;-88
2023/01/09 10:50:30;;;;;;;;;;;16.60;87.50;;;;;;5010675;28;20267;-88
2023/01/09 10:52:55;;;;;;;;;;;16.70;87.60;;;;;;5012794;28;20230;-88
2023/01/09 10:55:40;;;;;;;;;;;16.60;87.70;;;;;;5012128;28;20098;-88
2023/01/09 10:58:27;;;;;;;;;;;16.70;87.80;;;;;;5011008;28;19944;-88
2023/01/09 11:01:06;;;;;;;;;;;16.70;87.50;;;;;;5009963;28;20335;-88
2023/01/09 11:03:32;;;;;;;;;;;16.80;87.10;;;;;;5010333;28;19909;-88
2023/01/09 11:05:59;;;;;;;;;;;16.80;86.50;;;;;;5029836;28;19939;-88
2023/01/09 11:08:44;;;;;;;;;;;16.90;86.10;;;;;;4986286;28;19927;-88
2023/01/09 11:11:09;;;;;;;;;;;17.00;85.60;;;;;;5008037;28;19968;-88
2023/01/09 11:13:37;;;;;;;;;;;17.00;85.30;;;;;;5008278;28;19952;-88
2023/01/09 11:16:05;;;;;;;;;;;17.10;84.80;;;;;;5009094;28;20295;-88
2023/01/09 11:18:32;;;;;;;;;;;17.10;84.50;;;;;;5011297;28;19909;-88
2023/01/09 11:21:29;;;;;;;;;;;17.10;84.20;;;;;;5010892;28;20268;-88
2023/01/09 11:23:55;;;;;;;;;;;17.10;84.40;;;;;;5027945;28;19943;-88
2023/01/09 11:26:25;;;;;;;;;;;17.10;84.20;;;;;;5009265;28;20378;-88
2023/01/09 11:29:09;;;;;;;;;;;17.10;84.20;;;;;;5009348;28;19909;-88
2023/01/09 11:31:35;;;;;;;;;;;17.10;84.00;;;;;;5011032;28;19909;-88
2023/01/09 11:34:01;;;;;;;;;;;17.10;84.10;;;;;;5011578;28;20266;-88
2023/01/09 11:36:26;;;;;;;;;;;17.10;83.90;;;;;;5008863;28;19913;-88
2023/01/09 11:38:53;;;;;;;;;;;17.10;83.80;;;;;;5007319;28;19909;-88
2023/01/09 11:41:24;;;;;;;;;;;17.20;83.50;;;;;;5007272;28;20008;-88
2023/01/09 11:43:51;;;;;;;;;;;17.20;83.40;;;;;;5025871;28;20111;-88
2023/01/09 11:46:37;;;;;;;;;;;17.20;83.40;;;;;;5008452;28;20108;-88
2023/01/09 11:49:18;;;;;;;;;;;17.10;83.30;;;;;;5025396;28;19909;-88
2023/01/09 11:51:44;;;;;;;;;;;17.10;83.70;;;;;;5025326;28;19909;-87
2023/01/09 11:54:39;;;;;;;;;;;17.10;84.00;;;;;;5008612;28;19920;-88
2023/01/09 11:57:07;;;;;;;;;;;17.10;84.00;;;;;;4997080;28;19962;-88
2023/01/09 11:59:32;;;;;;;;;;;17.00;84.00;;;;;;5010574;28;19921;-88
2023/01/09 12:02:16;;;;;;;;;;;17.10;84.00;;;;;;4987880;28;19909;-88
2023/01/09 12:08:05;;;;;;;;;;;17.00;83.90;;;;;;5007085;28;19916;-88
2023/01/09 12:10:33;;;;;;;;;;;17.00;84.40;;;;;;5031493;28;19909;-88
2023/01/09 12:13:24;;;;;;;;;;;17.00;84.40;;;;;;5015305;28;19909;-88
2023/01/09 12:16:19;;;;;;;;;;;17.00;84.40;;;;;;5012992;28;20016;-88
2023/01/09 12:18:47;;;;;;;;;;;16.90;84.70;;;;;;5019988;28;19920;-88
2023/01/09 12:21:24;;;;;;;;;;;16.90;85.00;;;;;;5011787;28;19913;-87
2023/01/09 12:23:56;;;;;;;;;;;16.90;85.00;;;;;;5007225;28;20264;-87
2023/01/09 12:29:43;;;;;;;;;;;16.90;84.90;;;;;;5022821;28;20191;-87
2023/01/09 12:32:17;;;;;;;;;;;16.90;85.00;;;;;;5004634;28;19909;-87
2023/01/09 12:34:42;;;;;;;;;;;16.90;84.80;;;;;;5006580;28;20020;-87
2023/01/09 12:37:27;;;;;;;;;;;16.90;84.70;;;;;;5024138;28;20015;-87
2023/01/09 12:40:01;;;;;;;;;;;17.00;84.50;;;;;;5014332;28;19920;-88
2023/01/09 12:42:36;;;;;;;;;;;17.00;84.20;;;;;;5014194;28;20226;-87
2023/01/09 12:45:13;;;;;;;;;;;17.00;83.90;;;;;;5027319;28;20461;-88
2023/01/09 12:47:46;;;;;;;;;;;17.00;83.90;;;;;;4990086;28;20012;-88
2023/01/09 12:50:21;;;;;;;;;;;17.00;84.00;;;;;;5007378;28;20291;-88
2023/01/09 12:53:11;;;;;;;;;;;17.00;84.40;;;;;;5013294;28;19978;-88
2023/01/09 12:55:39;;;;;;;;;;;16.90;84.50;;;;;;5015723;28;19909;-88
2023/01/09 12:58:35;;;;;;;;;;;16.80;84.90;;;;;;5014122;28;19935;-88
2023/01/09 13:01:03;;;;;;;;;;;16.80;85.50;;;;;;5002733;28;19920;-88
2023/01/09 13:03:33;;;;;;;;;;;16.60;86.20;;;;;;5034745;28;19909;-87
2023/01/09 13:06:01;;;;;;;;;;;16.60;86.70;;;;;;5033940;28;20471;-87
2023/01/09 13:08:33;;;;;;;;;;;16.50;86.90;;;;;;5010435;28;20469;-88
2023/01/09 13:11:05;;;;;;;;;;;16.50;87.10;;;;;;5017075;28;19920;-87
2023/01/09 13:13:49;;;;;;;;;;;16.60;87.30;;;;;;4997881;28;19913;-87
2023/01/09 13:16:19;;;;;;;;;;;16.60;86.90;;;;;;5035163;28;19955;-87
2023/01/09 13:18:53;;;;;;;;;;;16.80;86.00;;;;;;5018614;28;19932;-87
2023/01/09 13:21:18;;;;;;;;;;;17.00;84.50;;;;;;5033519;28;19956;-87
2023/01/09 13:24:00;;;;;;;;;;;17.30;83.10;;;;;;5013509;28;19955;-88
2023/01/09 13:26:31;;;;;;;;;;;17.50;81.60;;;;;;5016624;28;19916;-87
2023/01/09 13:29:19;;;;;;;;;;;17.80;79.00;;;;;;5017451;28;19916;-88
2023/01/09 13:31:50;;;;;;;;;;;18.10;77.50;;;;;;5007062;28;19987;-88
2023/01/09 13:34:21;;;;;;;;;;;18.40;74.60;;;;;;5016514;28;20349;-88
2023/01/09 13:36:48;;;;;;;;;;;18.50;73.30;;;;;;5016605;28;20000;-88
2023/01/09 13:39:34;;;;;;;;;;;18.60;72.50;;;;;;5009073;28;19913;-87
2023/01/09 13:44:46;;;;;;;;;;;18.60;71.70;;;;;;4996512;28;20202;-87
2023/01/09 13:47:17;;;;;;;;;;;18.60;71.80;;;;;;5010079;28;19914;-87
2023/01/09 13:49:45;;;;;;;;;;;18.50;72.20;;;;;;5014810;28;20192;-87
2023/01/09 13:52:28;;;;;;;;;;;18.40;72.70;;;;;;5014114;28;19918;-88
2023/01/09 13:54:54;;;;;;;;;;;18.20;73.50;;;;;;5010391;28;19909;-87
2023/01/09 13:57:19;;;;;;;;;;;18.10;74.50;;;;;;5012286;28;20002;-88
2023/01/09 13:59:46;;;;;;;;;;;18.00;75.30;;;;;;5011635;28;20478;-87
2023/01/09 14:02:32;;;;;;;;;;;17.80;76.00;;;;;;5009689;28;19909;-88
2023/01/09 14:04:58;;;;;;;;;;;17.70;76.90;;;;;;4999436;28;19915;-88
2023/01/09 14:07:31;;;;;;;;;;;17.50;77.80;;;;;;5011968;28;20007;-87
2023/01/09 14:09:58;;;;;;;;;;;17.40;78.70;;;;;;4985505;28;20567;-87
2023/01/09 14:12:25;;;;;;;;;;;17.30;79.60;;;;;;5009372;28;19924;-87
2023/01/09 14:14:52;;;;;;;;;;;17.20;80.40;;;;;;5028006;28;20061;-88
2023/01/09 14:17:37;;;;;;;;;;;17.10;81.40;;;;;;5002943;28;19909;-87
2023/01/09 14:26:16;;;;;;;;;;;16.80;83.30;;;;;;5025835;28;19978;-88
2023/01/09 14:28:42;;;;;;;;;;;16.80;83.80;;;;;;5008927;28;19916;-87
2023/01/09 14:31:08;;;;;;;;;;;16.80;84.00;;;;;;5026265;28;19909;-87
2023/01/09 14:33:34;;;;;;;;;;;16.80;84.10;;;;;;5008325;28;19967;-88
2023/01/09 14:36:06;;;;;;;;;;;16.80;84.10;;;;;;5008689;28;19944;-87
2023/01/09 14:38:35;;;;;;;;;;;16.80;83.80;;;;;;4981307;28;19920;-87
2023/01/09 14:41:04;;;;;;;;;;;16.90;83.70;;;;;;5005340;28;19921;-88
2023/01/09 14:43:40;;;;;;;;;;;16.90;83.50;;;;;;4985088;28;19909;-87
2023/01/09 14:46:09;;;;;;;;;;;17.00;83.20;;;;;;5006889;28;20060;-87
2023/01/09 14:48:39;;;;;;;;;;;17.00;83.20;;;;;;5009448;28;19919;-88
2023/01/09 14:51:08;;;;;;;;;;;17.00;83.00;;;;;;5008507;28;19909;-87
2023/01/09 14:53:35;;;;;;;;;;;17.10;82.50;;;;;;5009179;28;19909;-87
2023/01/09 14:56:03;;;;;;;;;;;17.20;81.80;;;;;;5007760;28;19909;-87
2023/01/09 14:58:30;;;;;;;;;;;17.30;81.20;;;;;;5007833;28;19915;-87